FYM weather

Fayetteville Municipal Airport
Fayetteville, Tennessee, United States

Public forecast

Using degrees Fahrenheit for public forecast. Weather courtesy of forecast.io.

METAR (pilot weather report)

Retrieved 2019/08/21 10:35 UTC (0 seconds ago):

KFYM 211035Z AUTO 20005KT 10SM CLR 22/21 A3008 RMK A01

TAF (pilot weather forecast)

Closest forecast is Huntsville International Carl T Jones Field, 27.4 nm (50.8 km) SSW. Retrieved 2019/08/21 06:22 UTC (4 hours ago):

TAF KHSV 210520Z 2106/2206 VRB02KT P6SM BKN250 FM211400 23005KT P6SM SCT040